WEATHER DATA

YESTERDAY
Time Temp. Dewp. Hum. Bar. 1h Prec. 24h Prec.
00:07 17.3 13.4 78 1006.1 0.0000 0.0000
00:17 17.2 13.3 78 1005.9 0.0000 0.0000
00:27 17 13.1 78 1005.8 0.0000 0.0000
00:37 16.8 13.1 79 1005.8 0.0000 0.0000
00:48 16.6 12.9 79 1005.9 0.0000 0.0000
00:58 16.3 12.7 79 1005.7 0.0000 0.0000
01:08 16.2 12.6 79 1005.7 0.0000 0.0000
01:18 16 12.4 79 1005.7 0.0000 0.0000
01:28 15.9 12.5 80 1005.8 0.0000 0.0000
01:38 15.8 12.4 80 1005.6 0.0000 0.0000
01:48 15.6 12.2 80 1005.7 0.0000 0.0000
01:58 15.6 12.2 80 1005.6 0.0000 0.0000
02:09 15.6 12.4 81 1005.8 0.0000 0.0000
02:16 15.6 12.7 83 1006.7 0.3030 0.3030
02:26 15.4 13.4 88 1006.5 2.1210 2.1210
02:36 15.3 13.5 89 1006.5 2.3230 2.3230
02:46 15.2 13.6 90 1006.7 2.4240 2.4240
02:57 15.2 13.6 90 1006.1 2.6260 2.6260
03:07 15.2 13.6 90 1006.4 2.6260 2.6260
03:17 15.1 13.5 90 1006.4 2.3230 2.6260
03:27 15 13.5 91 1006.4 0.5050 2.6260
03:37 15 13.5 91 1006.4 0.3030 2.6260
03:47 14.9 13.4 91 1006.4 0.2020 2.6260
03:57 14.8 13.3 91 1006.6 0.0000 2.6260
04:18 14.7 13.2 91 1006.7 0.0000 2.6260
04:28 14.7 13.2 91 1006.7 0.0000 2.6260
04:37 14.7 13.2 91 1006.8 0.0000 2.6260
04:48 14.8 13.3 91 1006.8 0.0000 2.6260
04:58 14.8 13.3 91 1006.7 0.0000 2.6260
05:08 14.8 13.3 91 1006.8 0.0000 2.6260
05:18 14.8 13.3 91 1007.2 0.0000 2.6260
05:29 14.9 13.3 90 1007.2 0.0000 2.6260
05:39 15 13.4 90 1007.2 0.0000 2.6260
05:48 15 13.4 90 1007.3 0.0000 2.6260
05:59 15 13.2 89 1007.3 0.0000 2.6260
06:09 15 13.2 89 1007.3 0.0000 2.6260
06:19 14.9 13.1 89 1007.3 0.0000 2.6260
06:29 14.8 13 89 1007.6 0.0000 2.6260
06:40 14.8 12.8 88 1007.4 0.0000 2.6260
06:49 14.7 12.7 88 1007.6 0.0000 2.6260
06:59 14.7 12.6 87 1007.7 0.0000 2.6260
07:09 14.6 12.5 87 1008 0.0000 2.6260
07:22 14.6 12.5 87 1008 0.0000 2.6260
07:40 14.5 12.2 86 1008.2 0.0000 2.6260
07:58 14.4 11.9 85 1008.3 0.0000 2.6260
08:08 14.3 11.8 85 1008.4 0.0000 2.6260
08:20 14.3 11.6 84 1008.5 0.0000 2.6260
08:30 14.3 11.6 84 1008.7 0.0000 2.6260
08:41 14.3 11.6 84 1008.8 0.0000 2.6260
08:51 14.3 11.5 83 1008.7 0.0000 2.6260
09:00 14.3 11.5 83 1008.9 0.0000 2.6260
09:11 14.3 11.3 82 1008.9 0.0000 2.6260
09:19 14.2 11.2 82 1009.1 0.0000 2.6260
09:31 14.2 11 81 1009.1 0.0000 2.6260
09:41 14.2 11 81 1009.1 0.0000 2.6260
09:52 14.4 11.2 81 1009.1 0.0000 2.6260
10:02 14.6 11.4 81 1009.3 0.0000 2.6260
10:11 14.7 11.3 80 1009.3 0.0000 2.6260
10:22 14.9 11.5 80 1009.2 0.0000 2.6260
10:30 15.1 11.7 80 1009.4 0.0000 2.6260
10:42 15.7 11.9 78 1009.3 0.0000 2.6260
10:52 16.1 12.1 77 1009.5 0.0000 2.6260
11:03 16.5 12.3 76 1009.6 0.0000 2.6260
11:13 16.9 12.6 76 1009.6 0.0000 2.6260
11:22 17.1 12.6 75 1009.7 0.0000 2.6260
11:33 17.2 12.5 74 1009.7 0.0000 2.6260
11:43 17.5 12.6 73 1009.9 0.0000 2.6260
11:53 17.5 12.6 73 1010 0.0000 2.6260
12:03 17.2 12.1 72 1010 0.0000 2.6260
12:14 16.9 11.6 71 1010.2 0.0000 2.6260
12:24 16.6 11.3 71 1010.2 0.0000 2.6260
12:33 16.7 11.4 71 1010 0.0000 2.6260
12:43 17 11.3 69 1010.3 0.0000 2.6260
12:52 17 11.1 68 1010 0.0000 2.6260
13:04 17.3 11.8 70 1010.1 0.0000 2.6260
13:14 17.6 12.1 70 1010.2 0.0000 2.6260
13:24 17.6 11.9 69 1010.2 0.0000 2.6260
13:35 17.6 11.6 68 1010.2 0.0000 2.6260
13:44 17.6 11.6 68 1010.2 0.0000 2.6260
13:53 17.7 11.7 68 1010.3 0.0000 2.6260
14:05 17.8 11.6 67 1010.3 0.0000 2.6260
14:15 17.7 11.3 66 1010.3 0.0000 2.6260
14:24 17.7 11.3 66 1010.3 0.0000 2.6260
14:35 17.8 11.4 66 1010.2 0.0000 2.6260
14:46 18 11.6 66 1010.1 0.0000 2.6260
14:55 18.3 11.4 64 1010.2 0.0000 2.6260
15:04 18.5 11.6 64 1010 0.0000 2.6260
15:16 18.3 11.1 63 1010.1 0.0000 2.6260
15:26 18.4 11.5 64 1010 0.0000 2.6260
15:36 18.4 11.2 63 1009.9 0.0000 2.6260
15:46 18.7 11.3 62 1009.9 0.0000 2.6260
15:57 18.8 11.1 61 1009.8 0.0000 2.6260
16:06 18.9 11 60 1009.9 0.0000 2.6260
16:16 19.1 10.9 59 1009.9 0.0000 2.6260
16:26 19 10.8 59 1009.7 0.0000 2.6260
16:37 18.8 10.4 58 1009.7 0.0000 2.6260
16:47 18.7 10 57 1009.7 0.0000 2.6260
16:57 18.5 9.8 57 1009.8 0.0000 2.6260
17:01 18.5 10.1 58 1009.8 0.0000 2.6260
17:17 18.3 9.9 58 1010 0.0000 2.6260
17:25 18.1 9.7 58 1010 0.0000 2.6260
17:37 17.9 9.8 59 1010 0.0000 2.6260
17:47 17.9 9.8 59 1010.1 0.0000 2.6260
17:57 17.9 9.5 58 1010 0.0000 2.6260
18:08 17.8 9.2 57 1010.1 0.0000 2.6260
18:18 17.6 9.5 59 1010.2 0.0000 2.6260
18:28 17.5 9.4 59 1010.2 0.0000 2.6260
18:37 17.4 9.1 58 1010.2 0.0000 2.6260
18:48 17.3 9 58 1010.3 0.0000 2.6260
18:58 17.2 8.9 58 1010.2 0.0000 2.6260
19:08 17 8.9 59 1010.2 0.0000 2.6260
19:19 16.8 8.8 59 1010.5 0.0000 2.6260
19:29 16.7 8.9 60 1010.5 0.0000 2.6260
19:38 16.5 8.7 60 1010.4 0.0000 2.6260
19:49 16.3 8.5 60 1010.4 0.0000 2.6260
19:59 16 8.5 61 1010.4 0.0000 2.6260
20:09 15.8 8.3 61 1010.4 0.0000 2.6260
20:19 15.6 8.4 62 1010.4 0.0000 2.6260
20:39 15.1 8.1 63 1010.5 0.0000 2.6260
20:49 14.8 7.8 63 1010.7 0.0000 2.6260
20:59 14.5 7.8 64 1010.8 0.0000 2.6260
21:10 14.2 7.5 64 1010.7 0.0000 2.6260
21:20 13.9 7.2 64 1010.9 0.0000 2.6260
21:30 13.6 7.2 65 1011 0.0000 2.6260
21:40 13.4 7 65 1011 0.0000 2.6260
21:50 13.2 6.8 65 1011.2 0.0000 2.6260
22:00 12.9 6.5 65 1011.2 0.0000 2.6260
22:08 12.8 6.6 66 1011.1 0.0000 2.6260
22:21 12.6 6.6 67 1011.2 0.0000 2.6260
22:30 12.5 6.8 68 1011.1 0.0000 2.6260
22:40 12.3 6.8 69 1011.1 0.0000 2.6260
22:51 12.1 6.6 69 1011.2 0.0000 2.6260
23:01 12 6.5 69 1011.3 0.0000 2.6260
23:11 11.8 6.3 69 1011.3 0.0000 2.6260
23:21 11.6 6.1 69 1011.1 0.0000 2.6260
23:30 11.5 6.2 70 1011.2 0.0000 2.6260
23:41 11.3 6 70 1011.2 0.0000 2.6260
23:51 11.2 5.9 70 1011.2 0.0000

DAY STATISTIC

2018-04-23
TEMPERATURE
AVERAGE
15.8
HIGH
19.1
16:16
LOW
11.2
23:51
PRESSURE
AVERAGE
1009.0
HIGH
1011.3
23:01
LOW
1005.6
01:38
DEWPOINT
AVERAGE
11.0
HIGH
13.6
02:46
LOW
5.9
23:51
HUMIDITY
AVERAGE
74
HIGH
91
03:27
LOW
57
16:47
PRECIPITATION
RAIN HOUR
2.6
RAIN DAY
2.6
TEMPERATURE (°C)
LOW
11.2
HIGH
19.1
AVERAGE
15.8
PRESSURE (hpa)
LOW
1005.6
HIGH
1011.3
AVERAGE
1009.0
DEVICE